createdAt,value
2018-05-01T00:01:33.518Z,80.01
2018-05-01T00:06:37.973Z,81.06
2018-05-01T00:09:07.160Z,81.71
2018-05-01T00:11:36.394Z,81.76
2018-05-01T00:14:05.589Z,82.17
2018-05-01T00:16:34.789Z,82.21
2018-05-01T00:21:43.922Z,82.84
2018-05-01T00:24:13.193Z,83.63
2018-05-01T00:26:43.197Z,83.79
2018-05-01T00:29:13.157Z,83.49
2018-05-01T00:31:42.359Z,84.20
2018-05-01T00:34:11.577Z,84.73
2018-05-01T00:36:40.782Z,83.70
2018-05-01T00:39:10.014Z,84.97
2018-05-01T00:41:40.019Z,84.43
2018-05-01T00:44:09.973Z,84.58
2018-05-01T00:46:39.221Z,84.49
2018-05-01T00:49:08.442Z,85.45
2018-05-01T00:51:37.615Z,85.08
2018-05-01T00:54:06.839Z,85.70
2018-05-01T00:56:36.072Z,86.12
2018-05-01T00:59:05.290Z,85.93
2018-05-01T01:01:35.286Z,86.19
2018-05-01T01:04:04.493Z,85.88
2018-05-01T01:06:33.695Z,86.35
2018-05-01T01:09:02.904Z,86.63
2018-05-01T01:11:32.110Z,86.46
2018-05-01T01:14:01.686Z,86.41
2018-05-01T01:16:30.930Z,86.92
2018-05-01T01:19:00.097Z,86.59
2018-05-01T01:21:29.293Z,86.87
2018-05-01T01:23:58.515Z,87.52
2018-05-01T01:26:28.476Z,86.69
2018-05-01T01:28:57.690Z,86.96
2018-05-01T01:31:26.868Z,87.07
2018-05-01T01:33:56.105Z,86.72
2018-05-01T01:36:24.458Z,87.68
2018-05-01T01:38:52.790Z,87.38
2018-05-01T01:41:21.907Z,87.09
2018-05-01T01:43:50.293Z,86.81
2018-05-01T01:46:18.651Z,86.91
2018-05-01T01:48:47.023Z,86.88
2018-05-01T01:51:16.141Z,87.42
2018-05-01T01:53:44.498Z,87.29
2018-05-01T01:56:13.628Z,87.13
2018-05-01T01:58:42.095Z,86.94
2018-05-01T02:01:10.445Z,87.42
2018-05-01T02:03:39.570Z,87.42
2018-05-01T02:06:07.934Z,87.69
2018-05-01T02:08:36.310Z,87.49
2018-05-01T02:11:04.699Z,87.74
2018-05-01T02:13:33.769Z,87.60
2018-05-01T02:16:02.873Z,87.63
2018-05-01T02:18:31.230Z,87.48
2018-05-01T02:21:00.528Z,87.59
2018-05-01T02:23:28.858Z,87.72
2018-05-01T02:25:57.249Z,87.67
2018-05-01T02:28:25.790Z,87.63
2018-05-01T02:30:54.141Z,87.42
2018-05-01T02:33:22.506Z,87.45
2018-05-01T02:35:50.867Z,87.58
2018-05-01T02:38:19.218Z,87.16
2018-05-01T02:40:47.592Z,87.19
2018-05-01T02:43:15.955Z,87.64
2018-05-01T02:45:45.069Z,87.22
2018-05-01T02:48:13.431Z,87.41
2018-05-01T02:50:41.786Z,87.61
2018-05-01T02:53:10.190Z,87.52
2018-05-01T02:55:38.533Z,88.05
2018-05-01T02:58:06.899Z,87.61
2018-05-01T03:00:35.273Z,87.69
2018-05-01T03:03:03.608Z,87.74
2018-05-01T03:05:31.979Z,88.20
2018-05-01T03:08:00.371Z,87.92
2018-05-01T03:10:28.725Z,87.57
2018-05-01T03:12:57.085Z,87.57
2018-05-01T03:15:25.503Z,86.91
2018-05-01T03:17:53.845Z,87.37
2018-05-01T03:20:23.065Z,87.43
2018-05-01T03:22:51.439Z,86.94
2018-05-01T03:25:19.905Z,87.26
2018-05-01T03:27:48.196Z,87.21
2018-05-01T03:30:16.590Z,87.11
2018-05-01T03:32:44.949Z,86.69
2018-05-01T03:35:13.299Z,86.49
2018-05-01T03:37:41.682Z,87.05
2018-05-01T03:40:10.198Z,86.54
2018-05-01T03:42:39.305Z,86.97
2018-05-01T03:45:07.666Z,86.96
2018-05-01T03:47:36.037Z,87.17
2018-05-01T03:50:04.390Z,86.92
2018-05-01T03:52:33.525Z,87.45
2018-05-01T03:55:01.877Z,86.93
2018-05-01T03:57:30.242Z,86.90
2018-05-01T03:59:59.361Z,87.94
2018-05-01T04:02:27.705Z,87.88
2018-05-01T04:04:56.056Z,87.36
2018-05-01T04:07:24.404Z,87.19
2018-05-01T04:09:52.750Z,87.41
2018-05-01T04:12:21.882Z,86.78
2018-05-01T04:14:51.069Z,87.13
2018-05-01T04:17:19.513Z,86.78
2018-05-01T04:19:47.866Z,86.70
2018-05-01T04:22:16.209Z,86.68
2018-05-01T04:24:44.601Z,86.83
2018-05-01T04:27:12.950Z,87.07
2018-05-01T04:29:41.319Z,87.19
2018-05-01T04:32:10.443Z,87.62
2018-05-01T04:34:38.805Z,88.04
2018-05-01T04:37:07.146Z,87.37
2018-05-01T04:39:35.508Z,87.35
2018-05-01T04:42:03.856Z,87.28
2018-05-01T04:44:32.467Z,87.71
2018-05-01T04:47:00.879Z,88.01
2018-05-01T04:49:30.001Z,87.73
2018-05-01T04:51:58.373Z,87.56
2018-05-01T04:54:26.749Z,87.61
2018-05-01T04:56:55.113Z,88.16
2018-05-01T04:59:23.473Z,87.77
2018-05-01T05:01:51.846Z,87.28
2018-05-01T05:04:20.225Z,87.19
2018-05-01T05:06:48.574Z,87.47
2018-05-01T05:09:16.930Z,87.47
2018-05-01T05:11:45.314Z,87.32
2018-05-01T05:14:13.670Z,86.60
2018-05-01T05:16:42.027Z,86.58
2018-05-01T05:19:11.174Z,86.56
2018-05-01T05:21:39.538Z,86.31
2018-05-01T05:24:07.875Z,86.14
2018-05-01T05:26:37.034Z,86.83
2018-05-01T05:29:05.377Z,86.35
2018-05-01T05:31:33.781Z,86.76
2018-05-01T05:34:02.152Z,87.14
2018-05-01T05:36:30.516Z,87.09
2018-05-01T05:38:59.635Z,86.89
2018-05-01T05:41:28.013Z,85.94
2018-05-01T05:43:56.361Z,86.68
2018-05-01T05:46:24.762Z,86.49
2018-05-01T05:48:53.154Z,86.08
2018-05-01T05:51:21.501Z,86.38
2018-05-01T05:53:50.797Z,86.02
2018-05-01T05:56:19.174Z,85.83
2018-05-01T05:58:47.545Z,85.25
2018-05-01T06:01:15.898Z,85.47
2018-05-01T06:03:44.271Z,85.42
2018-05-01T06:06:13.415Z,85.11
2018-05-01T06:08:41.776Z,84.16
2018-05-01T06:11:10.118Z,84.39
2018-05-01T06:13:38.568Z,84.67
2018-05-01T06:16:06.851Z,84.41
2018-05-01T06:18:35.222Z,82.60
2018-05-01T06:21:03.991Z,83.22
2018-05-01T06:23:33.091Z,83.30
2018-05-01T06:26:01.448Z,82.35
2018-05-01T06:28:29.830Z,82.71
2018-05-01T06:30:58.187Z,82.36
2018-05-01T06:33:26.587Z,81.98
2018-05-01T06:35:54.955Z,81.60
2018-05-01T06:38:23.312Z,81.83
2018-05-01T06:40:52.445Z,80.75
2018-05-01T06:43:20.811Z,81.23
2018-05-01T06:45:49.151Z,81.08
2018-05-01T06:48:17.486Z,80.44
2018-05-01T06:50:45.943Z,80.89
2018-05-01T06:53:14.258Z,80.42
2018-05-01T06:55:42.618Z,79.94
2018-05-01T06:58:11.080Z,80.02
2018-05-01T07:00:39.444Z,79.42
2018-05-01T07:03:07.815Z,80.11
2018-05-01T07:05:36.965Z,79.43
2018-05-01T07:08:05.319Z,80.66
2018-05-01T07:10:33.695Z,80.57
2018-05-01T07:13:02.076Z,80.94
2018-05-01T07:15:30.470Z,81.21
2018-05-01T07:17:58.830Z,81.59
2018-05-01T07:20:27.192Z,79.99
2018-05-01T07:22:55.558Z,80.59
2018-05-01T07:25:24.771Z,81.15
2018-05-01T07:27:53.165Z,80.58
2018-05-01T07:30:21.546Z,81.50
2018-05-01T07:32:49.911Z,81.77
2018-05-01T07:35:18.276Z,81.21
2018-05-01T07:37:46.609Z,81.00
2018-05-01T07:40:15.002Z,80.80
2018-05-01T07:42:44.130Z,80.59
2018-05-01T07:45:12.593Z,81.06
2018-05-01T07:47:41.002Z,80.41
2018-05-01T07:50:09.397Z,79.93
2018-05-01T07:52:37.768Z,79.11
2018-05-01T07:55:06.206Z,77.05
2018-05-01T07:57:34.561Z,75.98
2018-05-01T08:00:02.905Z,74.46
2018-05-01T08:02:31.265Z,75.25
2018-05-01T08:04:59.631Z,74.60
2018-05-01T08:07:27.994Z,73.39
2018-05-01T08:09:56.333Z,73.63
2018-05-01T08:12:24.700Z,71.84
2018-05-01T08:14:53.053Z,73.82
2018-05-01T08:17:21.422Z,72.06
2018-05-01T08:19:49.813Z,70.83
2018-05-01T08:22:18.217Z,70.82
2018-05-01T08:24:46.581Z,70.54
2018-05-01T08:27:14.950Z,67.93
2018-05-01T08:29:43.343Z,67.34
2018-05-01T08:32:11.732Z,69.17
2018-05-01T08:34:40.141Z,66.27
2018-05-01T08:37:08.469Z,67.31
2018-05-01T08:39:36.922Z,65.57
2018-05-01T08:42:05.275Z,66.87
2018-05-01T08:44:34.421Z,64.54
2018-05-01T08:47:02.784Z,63.25
2018-05-01T08:49:31.187Z,63.09
2018-05-01T08:51:59.556Z,64.18
2018-05-01T08:54:27.918Z,64.83
2018-05-01T08:56:56.288Z,62.43
2018-05-01T08:59:24.679Z,61.82
2018-05-01T09:01:53.060Z,59.78
2018-05-01T09:04:21.449Z,61.90
2018-05-01T09:06:49.805Z,61.94
2018-05-01T09:09:18.178Z,61.24
2018-05-01T09:11:46.554Z,58.38
2018-05-01T09:14:14.950Z,58.31
2018-05-01T09:16:43.312Z,58.97
2018-05-01T09:19:11.741Z,58.09
2018-05-01T09:21:40.100Z,58.19
2018-05-01T09:24:08.478Z,58.06
2018-05-01T09:26:36.855Z,56.81
2018-05-01T09:29:05.222Z,57.09
2018-05-01T09:31:33.706Z,58.02
2018-05-01T09:34:02.093Z,57.75
2018-05-01T09:36:30.496Z,58.53
2018-05-01T09:38:58.871Z,58.36
2018-05-01T09:41:28.007Z,53.71
2018-05-01T09:43:56.366Z,54.27
2018-05-01T09:46:25.566Z,53.79
2018-05-01T09:48:54.682Z,53.83
2018-05-01T09:51:23.990Z,54.05
2018-05-01T09:53:53.235Z,53.68
2018-05-01T09:56:22.448Z,53.44
2018-05-01T09:58:52.491Z,53.19
2018-05-01T10:01:22.548Z,52.85
2018-05-01T10:03:51.786Z,52.13
2018-05-01T10:06:21.761Z,51.82
2018-05-01T10:08:51.230Z,52.17
2018-05-01T10:11:20.509Z,53.98
2018-05-01T10:13:49.756Z,51.33
2018-05-01T10:16:18.978Z,52.40
2018-05-01T10:18:48.580Z,50.12
2018-05-01T10:21:17.806Z,49.74
2018-05-01T10:23:47.854Z,50.97
2018-05-01T10:26:17.091Z,51.88
2018-05-01T10:28:46.387Z,50.56
2018-05-01T10:31:15.636Z,51.41
2018-05-01T10:33:45.629Z,52.24
2018-05-01T10:36:15.602Z,51.12
2018-05-01T10:38:44.968Z,51.25
2018-05-01T10:41:14.166Z,49.12
2018-05-01T10:43:43.470Z,49.11
2018-05-01T10:46:12.715Z,48.66
2018-05-01T10:48:41.937Z,47.83
2018-05-01T10:51:11.943Z,48.83
2018-05-01T10:53:41.177Z,49.59
2018-05-01T10:56:10.413Z,48.74
2018-05-01T10:58:39.676Z,50.45
2018-05-01T11:01:08.932Z,51.09
2018-05-01T11:03:38.150Z,51.25
2018-05-01T11:06:07.464Z,51.40
2018-05-01T11:08:36.681Z,50.04
2018-05-01T11:11:05.924Z,50.31
2018-05-01T11:13:35.522Z,51.65
2018-05-01T11:16:04.730Z,49.88
2018-05-01T11:18:33.989Z,50.85
2018-05-01T11:21:03.244Z,49.37
2018-05-01T11:23:33.257Z,49.71
2018-05-01T11:26:03.284Z,51.16
2018-05-01T11:28:32.583Z,49.00
2018-05-01T11:31:01.754Z,50.20
2018-05-01T11:33:31.056Z,48.64
2018-05-01T11:36:00.239Z,51.92
2018-05-01T11:38:29.494Z,50.33
2018-05-01T11:40:58.765Z,50.71
2018-05-01T11:43:28.790Z,51.01
2018-05-01T11:45:57.997Z,51.53
2018-05-01T11:48:27.233Z,50.20
2018-05-01T11:50:56.505Z,50.73
2018-05-01T11:53:25.754Z,50.44
2018-05-01T11:55:54.989Z,49.59
2018-05-01T11:58:24.267Z,51.27
2018-05-01T12:00:54.259Z,50.55
2018-05-01T12:03:23.480Z,50.35
2018-05-01T12:05:53.473Z,50.63
2018-05-01T12:08:23.472Z,51.31
2018-05-01T12:10:52.779Z,50.25
2018-05-01T12:13:22.052Z,50.34
2018-05-01T12:15:51.302Z,51.79
2018-05-01T12:18:20.571Z,50.67
2018-05-01T12:20:49.794Z,48.84
2018-05-01T12:23:19.063Z,48.85
2018-05-01T12:25:48.331Z,49.86
2018-05-01T12:28:17.590Z,49.24
2018-05-01T12:30:46.859Z,49.60
2018-05-01T12:33:16.123Z,48.20
2018-05-01T12:35:45.363Z,47.53
2018-05-01T12:38:14.641Z,46.99
2018-05-01T12:40:43.915Z,45.81
2018-05-01T12:43:13.883Z,48.58
2018-05-01T12:45:43.134Z,48.20
2018-05-01T12:48:13.189Z,47.26
2018-05-01T12:50:42.390Z,48.89
2018-05-01T12:53:11.595Z,48.00
2018-05-01T12:55:40.837Z,47.46
2018-05-01T12:58:10.082Z,48.00
2018-05-01T13:00:39.325Z,46.90
2018-05-01T13:03:08.592Z,46.08
2018-05-01T13:05:37.841Z,45.33
2018-05-01T13:08:07.071Z,45.86
2018-05-01T13:10:36.342Z,46.28
2018-05-01T13:13:05.583Z,46.03
2018-05-01T13:15:34.830Z,45.69
2018-05-01T13:18:04.092Z,44.69
2018-05-01T13:20:34.118Z,45.01
2018-05-01T13:23:03.318Z,45.90
2018-05-01T13:25:32.532Z,47.00
2018-05-01T13:28:01.810Z,44.18
2018-05-01T13:30:31.023Z,44.39
2018-05-01T13:33:01.027Z,43.13
2018-05-01T13:35:31.067Z,45.28
2018-05-01T13:38:00.342Z,44.94
2018-05-01T13:40:29.559Z,45.61
2018-05-01T13:42:58.823Z,42.36
2018-05-01T13:45:28.078Z,42.86
2018-05-01T13:47:57.277Z,41.33
2018-05-01T13:50:26.536Z,42.91
2018-05-01T13:52:55.740Z,40.84
2018-05-01T13:55:24.989Z,39.67
2018-05-01T13:57:54.234Z,38.53
2018-05-01T14:00:23.490Z,39.21
2018-05-01T14:02:52.670Z,37.38
2018-05-01T14:05:21.936Z,39.88
2018-05-01T14:07:51.947Z,39.56
2018-05-01T14:10:21.192Z,38.13
2018-05-01T14:12:50.462Z,38.40
2018-05-01T14:15:19.741Z,36.50
2018-05-01T14:17:48.935Z,36.15
2018-05-01T14:20:19.009Z,36.13
2018-05-01T14:22:49.078Z,37.22
2018-05-01T14:25:18.426Z,36.16
2018-05-01T14:27:47.613Z,36.96
2018-05-01T14:30:16.856Z,37.52
2018-05-01T14:32:46.073Z,38.30
2018-05-01T14:35:15.407Z,34.54
2018-05-01T14:37:44.639Z,34.51
2018-05-01T14:40:13.872Z,35.89
2018-05-01T14:42:43.084Z,36.28
2018-05-01T14:45:13.269Z,36.66
2018-05-01T14:47:43.366Z,39.05
2018-05-01T14:50:12.970Z,36.58
2018-05-01T14:52:42.206Z,36.36
2018-05-01T14:55:12.193Z,37.86
2018-05-01T14:57:41.419Z,38.38
2018-05-01T15:00:11.467Z,38.77
2018-05-01T15:02:52.401Z,40.05
2018-05-01T15:05:21.618Z,39.71
2018-05-01T15:07:51.859Z,39.89
2018-05-01T15:10:21.077Z,40.01
2018-05-01T15:12:50.533Z,39.26
2018-05-01T15:15:20.527Z,40.22
2018-05-01T15:17:49.781Z,41.79
2018-05-01T15:20:18.992Z,41.93
2018-05-01T15:22:48.258Z,40.62
2018-05-01T15:25:17.481Z,40.56
2018-05-01T15:27:46.673Z,41.48
2018-05-01T15:30:16.031Z,41.59
2018-05-01T15:32:45.966Z,39.98
2018-05-01T15:35:15.245Z,40.38
2018-05-01T15:37:45.269Z,41.35
2018-05-01T15:40:15.306Z,40.86
2018-05-01T15:42:44.565Z,42.53
2018-05-01T15:45:13.884Z,40.44
2018-05-01T15:47:43.171Z,41.35
2018-05-01T15:50:12.433Z,41.05
2018-05-01T15:52:41.677Z,41.31
2018-05-01T15:55:10.943Z,40.46
2018-05-01T15:57:40.150Z,41.15
2018-05-01T16:00:09.446Z,39.94
2018-05-01T16:02:39.914Z,40.51
2018-05-01T16:05:09.168Z,41.34
2018-05-01T16:07:38.468Z,41.84
2018-05-01T16:10:07.758Z,40.86
2018-05-01T16:12:36.991Z,41.53
2018-05-01T16:15:06.244Z,41.29
2018-05-01T16:17:35.812Z,40.61
2018-05-01T16:20:05.045Z,40.81
2018-05-01T16:22:35.081Z,42.90
2018-05-01T16:25:04.323Z,41.76
2018-05-01T16:27:33.603Z,41.84
2018-05-01T16:30:03.618Z,42.31
2018-05-01T16:32:33.613Z,41.38
2018-05-01T16:35:02.820Z,42.48
2018-05-01T16:37:32.037Z,41.61
2018-05-01T16:40:02.070Z,42.39
2018-05-01T16:42:31.320Z,40.56
2018-05-01T16:45:00.521Z,40.94
2018-05-01T16:47:29.800Z,40.50
2018-05-01T16:49:58.999Z,39.57
2018-05-01T16:52:28.234Z,40.97
2018-05-01T16:54:57.460Z,39.76
2018-05-01T16:57:27.469Z,40.53
2018-05-01T16:59:57.435Z,40.25
2018-05-01T17:02:26.648Z,40.55
2018-05-01T17:04:55.878Z,41.02
2018-05-01T17:07:25.394Z,42.60
2018-05-01T17:09:54.703Z,41.74
2018-05-01T17:12:23.927Z,41.75
2018-05-01T17:14:53.146Z,42.52
2018-05-01T17:17:22.394Z,40.98
2018-05-01T17:19:51.644Z,39.42
2018-05-01T17:22:21.101Z,40.04
2018-05-01T17:24:50.443Z,40.45
2018-05-01T17:27:19.759Z,40.15
2018-05-01T17:29:49.844Z,41.07
2018-05-01T17:32:19.103Z,42.50
2018-05-01T17:34:49.235Z,43.02
2018-05-01T17:37:18.457Z,41.45
2018-05-01T17:39:47.693Z,42.87
2018-05-01T17:42:16.883Z,41.84
2018-05-01T17:44:46.909Z,41.73
2018-05-01T17:47:16.666Z,42.23
2018-05-01T17:49:45.925Z,42.83
2018-05-01T17:52:15.952Z,42.57
2018-05-01T17:54:46.008Z,43.85
2018-05-01T17:57:15.254Z,43.43
2018-05-01T17:59:45.289Z,43.24
2018-05-01T18:02:14.516Z,43.60
2018-05-01T18:04:43.850Z,44.33
2018-05-01T18:07:13.095Z,44.62
2018-05-01T18:09:42.427Z,43.89
2018-05-01T18:12:11.701Z,44.46
2018-05-01T18:14:40.933Z,44.50
2018-05-01T18:17:10.178Z,44.70
2018-05-01T18:19:39.388Z,45.38
2018-05-01T18:22:09.110Z,45.53
2018-05-01T18:24:38.968Z,45.62
2018-05-01T18:27:08.240Z,45.79
2018-05-01T18:29:38.165Z,47.46
2018-05-01T18:32:08.097Z,47.38
2018-05-01T18:34:37.396Z,48.63
2018-05-01T18:37:06.643Z,49.57
2018-05-01T18:39:35.894Z,49.26
2018-05-01T18:42:05.100Z,50.31
2018-05-01T18:44:35.166Z,50.96
2018-05-01T18:47:05.653Z,51.44
2018-05-01T18:49:35.666Z,52.60
2018-05-01T18:52:05.787Z,51.98
2018-05-01T18:54:35.804Z,52.33
2018-05-01T18:57:05.803Z,53.02
2018-05-01T18:59:35.044Z,52.44
2018-05-01T19:02:04.317Z,52.72
2018-05-01T19:04:34.316Z,53.40
2018-05-01T19:07:04.313Z,53.05
2018-05-01T19:09:33.562Z,53.08
2018-05-01T19:12:02.766Z,53.59
2018-05-01T19:14:32.251Z,52.63
2018-05-01T19:17:02.121Z,53.50
2018-05-01T19:19:31.415Z,54.19
2018-05-01T19:22:00.593Z,54.27
2018-05-01T19:24:29.849Z,54.55
2018-05-01T19:26:59.315Z,55.45
2018-05-01T19:29:29.378Z,55.66
2018-05-01T19:31:59.385Z,56.00
2018-05-01T19:34:29.412Z,55.44
2018-05-01T19:36:58.779Z,56.27
2018-05-01T19:39:28.031Z,56.53
2018-05-01T19:41:57.314Z,56.88
2018-05-01T19:44:27.290Z,57.95
2018-05-01T19:46:56.538Z,57.79
2018-05-01T19:49:25.838Z,58.40
2018-05-01T19:51:55.591Z,58.51
2018-05-01T19:54:24.817Z,59.00
2018-05-01T19:56:54.817Z,58.66
2018-05-01T19:59:25.611Z,59.52
2018-05-01T20:01:54.838Z,60.13
2018-05-01T20:04:24.163Z,60.30
2018-05-01T20:06:53.384Z,61.00
2018-05-01T20:09:22.607Z,61.28
2018-05-01T20:11:51.870Z,61.17
2018-05-01T20:14:21.194Z,61.60
2018-05-01T20:16:51.304Z,61.68
2018-05-01T20:19:21.103Z,61.06
2018-05-01T20:21:51.129Z,61.78
2018-05-01T20:24:21.155Z,61.74
2018-05-01T20:26:50.478Z,61.68
2018-05-01T20:29:19.675Z,61.84
2018-05-01T20:31:49.688Z,62.18
2018-05-01T20:34:18.992Z,61.82
2018-05-01T20:36:49.165Z,62.46
2018-05-01T20:39:18.361Z,62.50
2018-05-01T20:41:48.359Z,62.56
2018-05-01T20:44:17.657Z,62.56
2018-05-01T20:46:47.007Z,62.67
2018-05-01T20:49:16.217Z,63.05
2018-05-01T20:51:45.481Z,62.71
2018-05-01T20:54:15.457Z,62.92
2018-05-01T20:56:44.666Z,63.13
2018-05-01T20:59:13.857Z,63.00
2018-05-01T21:01:43.125Z,63.30
2018-05-01T21:04:12.289Z,63.04
2018-05-01T21:06:41.574Z,63.63
2018-05-01T21:09:10.735Z,63.71
2018-05-01T21:11:39.947Z,63.94
2018-05-01T21:14:09.219Z,63.89
2018-05-01T21:16:38.625Z,63.87
2018-05-01T21:19:07.845Z,63.72
2018-05-01T21:21:37.681Z,64.04
2018-05-01T21:24:07.668Z,63.83
2018-05-01T21:26:37.093Z,64.53
2018-05-01T21:29:06.351Z,64.54
2018-05-01T21:31:35.561Z,64.51
2018-05-01T21:34:04.838Z,64.92
2018-05-01T21:36:34.072Z,64.69
2018-05-01T21:39:03.245Z,64.84
2018-05-01T21:41:33.312Z,64.96
2018-05-01T21:44:03.331Z,65.27
2018-05-01T21:46:33.304Z,65.43
2018-05-01T21:49:02.601Z,65.46
2018-05-01T21:51:31.963Z,65.53
2018-05-01T21:54:01.188Z,65.55
2018-05-01T21:56:30.809Z,65.83
2018-05-01T21:59:00.051Z,65.96
2018-05-01T22:01:30.048Z,66.11
2018-05-01T22:03:59.991Z,66.16
2018-05-01T22:06:29.964Z,66.29
2018-05-01T22:08:59.171Z,66.57
2018-05-01T22:11:28.376Z,66.12
2018-05-01T22:13:57.856Z,66.52
2018-05-01T22:16:27.086Z,66.50
2018-05-01T22:18:57.066Z,66.59
2018-05-01T22:21:26.426Z,66.51
2018-05-01T22:23:55.613Z,66.36
2018-05-01T22:26:24.831Z,66.72
2018-05-01T22:28:54.196Z,67.23
2018-05-01T22:31:24.950Z,66.87
2018-05-01T22:33:54.181Z,66.85
2018-05-01T22:36:24.366Z,67.15
2018-05-01T22:38:53.666Z,67.75
2018-05-01T22:41:22.865Z,67.96
2018-05-01T22:43:52.838Z,67.88
2018-05-01T22:46:23.023Z,68.07
2018-05-01T22:48:52.249Z,68.41
2018-05-01T22:51:21.467Z,68.29
2018-05-01T22:53:50.712Z,68.53
2018-05-01T22:56:19.905Z,68.40
2018-05-01T22:58:49.116Z,68.38
2018-05-01T23:01:18.324Z,68.27
2018-05-01T23:03:48.475Z,68.58
2018-05-01T23:06:17.662Z,68.23
2018-05-01T23:08:46.913Z,68.56
2018-05-01T23:11:16.111Z,68.64
2018-05-01T23:13:45.317Z,68.75
2018-05-01T23:16:14.517Z,68.63
2018-05-01T23:18:44.696Z,68.82
2018-05-01T23:21:13.878Z,68.78
2018-05-01T23:23:43.870Z,68.72
2018-05-01T23:26:13.100Z,68.18
2018-05-01T23:28:42.279Z,68.19
2018-05-01T23:31:11.899Z,68.49
2018-05-01T23:33:41.113Z,68.25
2018-05-01T23:36:11.091Z,68.20
2018-05-01T23:38:40.299Z,68.35
2018-05-01T23:41:09.527Z,68.42
2018-05-01T23:43:38.724Z,68.68
2018-05-01T23:46:08.717Z,68.53
2018-05-01T23:48:38.693Z,68.25
2018-05-01T23:51:08.880Z,68.55
2018-05-01T23:53:38.811Z,68.79
2018-05-01T23:56:08.025Z,68.41
2018-05-01T23:58:37.297Z,68.48
